Weather reports worldwide

Advertisment
Drumnadrochit, United Kingdom (99132): temperature & dewpoint: 11.08.2017 08:00:00 - 17.08.2017 08:00:00 (BST)Drumnadrochit, United Kingdom (99132): visibility: 11.08.2017 08:00:00 - 17.08.2017 08:00:00 (BST)Drumnadrochit, United Kingdom (99132): precipitation: 11.08.2017 08:00:00 - 17.08.2017 08:00:00 (BST)
Date & Time tt [°C] td [°C] vv [km] rr [mm]
17.08.2017 08:00:00 - - - -
17.08.2017 07:00:00 12,6 10,8 - 0,0
17.08.2017 06:00:00 13,0 11,0 - 0,0
17.08.2017 05:00:00 10,8 10,0 - 0,0
17.08.2017 04:00:00 12,3 11,8 - 0,0
17.08.2017 03:00:00 11,5 11,1 - 0,0
17.08.2017 02:00:00 12,1 11,7 - 0,0
17.08.2017 01:00:00 13,8 12,0 - 0,2
17.08.2017 00:00:00 14,9 14,7 - 4,0
16.08.2017 23:00:00 14,1 13,9 - 0,0
16.08.2017 22:00:00 14,0 13,7 - 0,0
16.08.2017 21:00:00 14,3 13,8 - 0,0
16.08.2017 20:00:00 14,7 13,6 - 0,6
16.08.2017 19:00:00 16,0 12,7 - 0,2
16.08.2017 18:00:00 17,0 11,6 - 0,0
16.08.2017 17:00:00 17,1 11,0 - 0,0
16.08.2017 16:00:00 17,2 10,9 - 0,0
16.08.2017 15:00:00 18,0 11,9 - 0,0
16.08.2017 14:00:00 16,1 10,4 - 0,0
16.08.2017 13:00:00 16,4 9,4 - 0,0
16.08.2017 12:00:00 16,5 10,2 - 0,0
16.08.2017 11:00:00 16,0 10,2 - 0,0
16.08.2017 10:00:00 14,8 10,5 10 0,0
16.08.2017 09:00:00 13,5 10,3 - 0,0
16.08.2017 08:00:00 12,2 10,9 - 0,0
16.08.2017 07:00:00 9,5 9,2 - 0,0
16.08.2017 06:00:00 9,7 9,2 - 0,0
16.08.2017 05:00:00 10,1 8,9 - 0,0
16.08.2017 04:00:00 10,6 8,8 - 0,0
16.08.2017 03:00:00 11,1 9,1 - 0,0
16.08.2017 02:00:00 10,7 9,4 - 0,0
16.08.2017 01:00:00 10,5 9,4 - 0,0
16.08.2017 00:00:00 12,4 9,5 - 0,0
15.08.2017 23:00:00 11,6 9,5 - 0,0
15.08.2017 22:00:00 9,6 6,9 - 0,0
15.08.2017 21:00:00 12,9 8,6 - 0,0
15.08.2017 20:00:00 14,0 9,2 - 0,0
15.08.2017 19:00:00 15,3 9,5 - 0,0
15.08.2017 18:00:00 15,3 9,8 - 0,0
15.08.2017 17:00:00 16,2 11,3 - 0,0
15.08.2017 16:00:00 16,5 12,3 - 0,0
15.08.2017 15:00:00 17,4 11,8 - 0,0
15.08.2017 14:00:00 15,6 11,3 - 0,0
15.08.2017 13:00:00 16,1 11,9 - 0,0
15.08.2017 12:00:00 16,4 10,8 - 0,0
15.08.2017 11:00:00 15,5 10,9 - 0,0
15.08.2017 10:00:00 15,6 10,9 10 0,0
15.08.2017 09:00:00 13,1 10,8 - 0,0
15.08.2017 08:00:00 10,5 10,5 - -
15.08.2017 07:00:00 9,0 8,9 - 0,0
15.08.2017 06:00:00 9,5 9,3 - 0,0
15.08.2017 05:00:00 10,0 9,9 - 0,0
15.08.2017 04:00:00 10,7 10,6 - 0,0
15.08.2017 03:00:00 11,2 11,1 - 0,0
15.08.2017 02:00:00 11,7 11,4 - 0,0
15.08.2017 01:00:00 12,4 12,2 - 0,0
15.08.2017 00:00:00 12,9 12,7 - 0,0
14.08.2017 23:00:00 13,2 13,0 - 0,0
14.08.2017 22:00:00 13,7 12,8 10 0,0
14.08.2017 21:00:00 15,4 13,4 - 0,0
14.08.2017 20:00:00 15,2 14,3 - 0,0
14.08.2017 19:00:00 17,4 15,0 - 1,6
14.08.2017 18:00:00 15,8 14,2 - 1,4
14.08.2017 17:00:00 17,0 13,8 - 0,0
14.08.2017 16:00:00 17,2 13,7 - 0,0
14.08.2017 15:00:00 15,6 13,2 - 0,0
14.08.2017 14:00:00 14,4 13,1 - 1,0
14.08.2017 13:00:00 12,9 12,1 - 1,8
14.08.2017 12:00:00 12,6 11,2 - 1,0
14.08.2017 11:00:00 12,1 10,8 - 1,0
14.08.2017 10:00:00 11,3 10,4 4,0 1,2
14.08.2017 09:00:00 10,6 10,1 - 0,8
14.08.2017 08:00:00 9,4 9,3 - 1,0
14.08.2017 07:00:00 8,9 8,8 - 0,0
14.08.2017 06:00:00 8,5 8,3 - 0,0
14.08.2017 05:00:00 8,7 8,4 - 0,0
14.08.2017 04:00:00 8,5 8,3 - 0,0
14.08.2017 03:00:00 8,3 8,1 - 0,0
14.08.2017 02:00:00 8,1 8,0 - 0,0
14.08.2017 01:00:00 7,8 7,3 - 0,0
14.08.2017 00:00:00 8,4 8,2 - 0,0
13.08.2017 23:00:00 7,6 7,1 - 0,0
13.08.2017 22:00:00 8,7 7,3 - 0,0
13.08.2017 21:00:00 11,8 9,6 - 0,0
13.08.2017 20:00:00 13,5 8,8 - 0,0
13.08.2017 19:00:00 14,3 8,2 - 0,0
13.08.2017 18:00:00 14,7 8,6 - 0,0
13.08.2017 17:00:00 15,6 8,7 - 0,0
13.08.2017 16:00:00 15,8 8,7 - 0,0
13.08.2017 15:00:00 15,8 8,8 - 0,0
13.08.2017 14:00:00 15,6 7,4 - 0,0
13.08.2017 13:00:00 15,5 9,0 - 0,0
13.08.2017 12:00:00 15,4 8,7 - 0,0
13.08.2017 11:00:00 12,9 9,4 - 0,0
13.08.2017 10:00:00 12,9 8,7 - 0,0
13.08.2017 09:00:00 10,9 8,7 - 0,0
13.08.2017 08:00:00 8,9 8,4 - 0,0
13.08.2017 07:00:00 5,8 5,8 - 0,0
13.08.2017 06:00:00 5,3 5,3 - 0,0
13.08.2017 05:00:00 5,6 5,6 - 0,0
13.08.2017 04:00:00 5,1 4,7 - 0,0
13.08.2017 03:00:00 7,3 6,5 - 0,0
13.08.2017 02:00:00 9,0 8,1 - 0,0
13.08.2017 01:00:00 8,5 7,9 - 0,0
13.08.2017 00:00:00 8,9 8,1 - 0,0
12.08.2017 23:00:00 9,0 7,3 - 0,0
12.08.2017 22:00:00 11,8 7,4 - 0,0
12.08.2017 21:00:00 12,8 7,7 - 0,0
12.08.2017 20:00:00 13,1 7,8 - 0,0
12.08.2017 19:00:00 14,9 6,9 - 0,0
12.08.2017 18:00:00 15,1 7,2 - 0,0
12.08.2017 17:00:00 16,8 8,8 - 0,0
12.08.2017 16:00:00 15,8 6,9 - 0,0
12.08.2017 15:00:00 15,7 7,1 - 0,0
12.08.2017 14:00:00 13,9 8,2 - 0,0
12.08.2017 13:00:00 12,7 8,8 - 0,0
12.08.2017 12:00:00 14,3 7,8 - 0,0
12.08.2017 11:00:00 13,4 8,6 - 0,0
12.08.2017 10:00:00 14,3 10,2 28 0,0
12.08.2017 09:00:00 11,3 10,0 - 0,0
12.08.2017 08:00:00 10,3 9,5 - 0,2
12.08.2017 07:00:00 9,3 9,2 - 0,0
12.08.2017 06:00:00 9,6 9,3 - 0,0
12.08.2017 05:00:00 10,6 10,3 - 0,0
12.08.2017 04:00:00 11,0 10,4 - 0,4
12.08.2017 03:00:00 11,6 11,4 - 0,2
12.08.2017 02:00:00 11,6 11,3 - 0,4
12.08.2017 01:00:00 11,7 11,3 - 0,6
12.08.2017 00:00:00 12,5 10,9 - 0,0
11.08.2017 23:00:00 13,7 10,9 - 0,0
11.08.2017 22:00:00 14,3 10,7 - 0,0
11.08.2017 21:00:00 14,3 10,7 - 0,0
11.08.2017 20:00:00 15,1 10,9 - 0,0
11.08.2017 19:00:00 15,9 10,8 - 0,0
11.08.2017 18:00:00 16,7 11,3 - 0,0
11.08.2017 17:00:00 16,8 11,1 - 0,0
11.08.2017 16:00:00 17,8 11,7 - 0,0
11.08.2017 15:00:00 18,2 12,2 - 0,0
11.08.2017 14:00:00 19,2 12,6 - 0,0
11.08.2017 13:00:00 18,8 14,4 - 0,0
11.08.2017 12:00:00 17,0 15,2 - 0,0
11.08.2017 11:00:00 16,5 14,1 10 0,0
11.08.2017 10:00:00 16,6 13,0 - -
11.08.2017 09:00:00 15,1 12,2 - 0,0
11.08.2017 08:00:00 14,9 11,8 - 0,0

tt = temperature
td = dewpoint
vv = visibility
rr = precipitation

Next stations